Observation data for Clarendon on 01/21/2019      Previous  Date  Next       Current Mesonet Observations  Soil Data  Daily Summary Page  Observations in Plain Language
KCES 210600Z 06001KT M04/M06 A2998 RMK A01 T10351058  RH  085%=      5-min Rain = 0
KCES 210605Z 06000KT M04/M07 A2999 RMK A01 T10411065  RH  084%=      5-min Rain = 0
KCES 210610Z 06001KT M04/M06 A2999 RMK A01 T10421063  RH  086%=      5-min Rain = 0
KCES 210615Z 06000KT M04/M06 A2999 RMK A01 T10411060  RH  086%=      5-min Rain = 0
KCES 210620Z 27001KT M04/M06 A2999 RMK A01 T10411060  RH  086%=      5-min Rain = 0
KCES 210625Z 25001KT M04/M06 A2999 RMK A01 T10431063  RH  086%=      5-min Rain = 0
KCES 210630Z 27002KT M04/M06 A2998 RMK A01 T10421060  RH  087%=      5-min Rain = 0
KCES 210635Z 26001KT M04/M06 A2998 RMK A01 T10401057  RH  088%=      5-min Rain = 0
KCES 210640Z 28001KT M04/M06 A2998 RMK A01 T10381055  RH  088%=      5-min Rain = 0
KCES 210645Z 28001KT M04/M05 A2998 RMK A01 T10371054  RH  088%=      5-min Rain = 0
KCES 210650Z 19001KT M04/M05 A2997 RMK A01 T10351053  RH  088%=      5-min Rain = 0
KCES 210655Z 17002KT M03/M05 A2996 RMK A01 T10311048  RH  089%=      5-min Rain = 0
KCES 210700Z 15003KT M03/M05 A2996 RMK A01 T10311051  RH  087%=      5-min Rain = 0
KCES 210705Z 15004KT M04/M06 A2996 RMK A01 T10391059  RH  086%=      5-min Rain = 0
KCES 210710Z 17004KT M04/M06 A2996 RMK A01 T10401059  RH  087%=      5-min Rain = 0
KCES 210715Z 16004KT M04/M06 A2996 RMK A01 T10401057  RH  088%=      5-min Rain = 0
KCES 210720Z 17003KT M04/M05 A2996 RMK A01 T10371053  RH  089%=      5-min Rain = 0
KCES 210725Z 17001KT M03/M05 A2996 RMK A01 T10341051  RH  089%=      5-min Rain = 0
KCES 210730Z 18001KT M04/M05 A2995 RMK A01 T10351052  RH  088%=      5-min Rain = 0
KCES 210735Z 18001KT M04/M05 A2995 RMK A01 T10351052  RH  088%=      5-min Rain = 0
KCES 210740Z 18000KT M03/M05 A2995 RMK A01 T10321049  RH  088%=      5-min Rain = 0
KCES 210745Z 19000KT M03/M05 A2995 RMK A01 T10331051  RH  088%=      5-min Rain = 0
KCES 210750Z 23000KT M03/M05 A2995 RMK A01 T10291046  RH  089%=      5-min Rain = 0
KCES 210755Z 34000KT M03/M05 A2995 RMK A01 T10271046  RH  087%=      5-min Rain = 0
KCES 210800Z 04000KT M03/M05 A2995 RMK A01 T10261045  RH  087%=      5-min Rain = 0
KCES 210805Z 04000KT M02/M04 A2995 RMK A01 T10241043  RH  087%=      5-min Rain = 0
KCES 210810Z 03002KT M02/M04 A2995 RMK A01 T10221042  RH  087%=      5-min Rain = 0
KCES 210815Z 03003KT M02/M05 A2994 RMK A01 T10241046  RH  085%=      5-min Rain = 0
KCES 210820Z 11002KT M03/M05 A2994 RMK A01 T10261046  RH  086%=      5-min Rain = 0
KCES 210825Z 16003KT M03/M05 A2993 RMK A01 T10251046  RH  086%=      5-min Rain = 0
KCES 210830Z 18001KT M03/M05 A2993 RMK A01 T10281049  RH  086%=      5-min Rain = 0
KCES 210835Z 18001KT M03/M05 A2993 RMK A01 T10301050  RH  086%=      5-min Rain = 0
KCES 210840Z 12000KT M03/M05 A2992 RMK A01 T10281046  RH  087%=      5-min Rain = 0
KCES 210845Z 12002KT M03/M05 A2992 RMK A01 T10281048  RH  086%=      5-min Rain = 0
KCES 210850Z 14003KT M03/M05 A2992 RMK A01 T10301050  RH  087%=      5-min Rain = 0
KCES 210855Z 15005KT M03/M04 A2991 RMK A01 T10271044  RH  088%=      5-min Rain = 0
KCES 210900Z 14004KT M03/M05 A2991 RMK A01 T10271045  RH  088%=      5-min Rain = 0
KCES 210905Z 12002KT M03/M05 A2992 RMK A01 T10321051  RH  087%=      5-min Rain = 0
KCES 210910Z 08002KT M03/M05 A2992 RMK A01 T10331051  RH  088%=      5-min Rain = 0
KCES 210915Z 07001KT M03/M05 A2992 RMK A01 T10301047  RH  089%=      5-min Rain = 0
KCES 210920Z 13001KT M03/M05 A2992 RMK A01 T10291046  RH  088%=      5-min Rain = 0
KCES 210925Z 14003KT M03/M05 A2992 RMK A01 T10301048  RH  088%=      5-min Rain = 0
KCES 210930Z 15003KT M03/M05 A2991 RMK A01 T10301048  RH  088%=      5-min Rain = 0
KCES 210935Z 16003KT M03/M05 A2991 RMK A01 T10301047  RH  089%=      5-min Rain = 0
KCES 210940Z 15004KT M03/M05 A2991 RMK A01 T10281045  RH  089%=      5-min Rain = 0
KCES 210945Z 15004KT M03/M05 A2991 RMK A01 T10301048  RH  088%=      5-min Rain = 0
KCES 210950Z 14004KT M03/M05 A299 RMK A01 T10341052  RH  087%=      5-min Rain = 0
KCES 210955Z 13002KT M04/M05 A299 RMK A01 T10361054  RH  088%=      5-min Rain = 0
KCES 211000Z 14002KT M04/M05 A2989 RMK A01 T10351051  RH  089%=      5-min Rain = 0
KCES 211005Z 05001KT M03/M05 A2989 RMK A01 T10341051  RH  088%=      5-min Rain = 0
KCES 211010Z 03003KT M04/M05 A2989 RMK A01 T10351052  RH  089%=      5-min Rain = 0
KCES 211015Z 06003KT M04/M05 A2989 RMK A01 T10361051  RH  089%=      5-min Rain = 0
KCES 211020Z 10003KT M03/M05 A2988 RMK A01 T10331048  RH  090%=      5-min Rain = 0
KCES 211025Z 13003KT M03/M05 A2988 RMK A01 T10301045  RH  090%=      5-min Rain = 0
KCES 211030Z 16003KT M03/M05 A2987 RMK A01 T10301046  RH  089%=      5-min Rain = 0
KCES 211035Z 17005KT M03/M05 A2987 RMK A01 T10321049  RH  089%=      5-min Rain = 0
KCES 211040Z 16004KT M03/M05 A2987 RMK A01 T10301045  RH  090%=      5-min Rain = 0
KCES 211045Z 15003KT M03/M05 A2987 RMK A01 T10341051  RH  088%=      5-min Rain = 0
KCES 211050Z 15003KT M04/M05 A2987 RMK A01 T10351050  RH  090%=      5-min Rain = 0
KCES 211055Z 15002KT M03/M05 A2987 RMK A01 T10321047  RH  090%=      5-min Rain = 0
KCES 211100Z 15001KT M03/M05 A2986 RMK A01 T10341050  RH  089%=      5-min Rain = 0
KCES 211105Z 17003KT M03/M04 A2986 RMK A01 T10301043  RH  091%=      5-min Rain = 0
KCES 211110Z 19004KT M02/M03 A2986 RMK A01 T10211033  RH  092%=      5-min Rain = 0
KCES 211115Z 19006KT M01/M03 A2986 RMK A01 T10141028  RH  091%=      5-min Rain = 0
KCES 211120Z 19008KT M00/M02 A2986 RMK A01 T10031022  RH  088%=      5-min Rain = 0
KCES 211125Z 19008KT 01/M02 A2986 RMK A01 T00071021  RH  082%=      5-min Rain = 0
KCES 211130Z 20009KT 01/M02 A2985 RMK A01 T00091022  RH  080%=      5-min Rain = 0
KCES 211135Z 19010KT 01/M02 A2985 RMK A01 T00091022  RH  080%=      5-min Rain = 0
KCES 211140Z 20010KT 01/M02 A2985 RMK A01 T00101022  RH  080%=      5-min Rain = 0
KCES 211145Z 20011KT 01/M02 A2985 RMK A01 T00141021  RH  078%=      5-min Rain = 0
KCES 211150Z 21012KT 02/M02 A2985 RMK A01 T00181020  RH  076%=      5-min Rain = 0
KCES 211155Z 21011KT 02/M02 A2985 RMK A01 T00211020  RH  075%=      5-min Rain = 0
KCES 211200Z 20012KT 02/M02 A2985 RMK A01 T00231020  RH  074%=      5-min Rain = 0
KCES 211205Z 19013KT 02/M02 A2985 RMK A01 T00231021  RH  073%=      5-min Rain = 0
KCES 211210Z 20013KT 02/M02 A2984 RMK A01 T00241022  RH  072%=      5-min Rain = 0
KCES 211215Z 19012KT 03/M02 A2984 RMK A01 T00251023  RH  072%=      5-min Rain = 0
KCES 211220Z 19013KT 02/M02 A2984 RMK A01 T00221023  RH  073%=      5-min Rain = 0
KCES 211225Z 19012KT 02/M02 A2983 RMK A01 T00231024  RH  072%=      5-min Rain = 0
KCES 211230Z 18011KT 02/M02 A2983 RMK A01 T00231024  RH  072%=      5-min Rain = 0
KCES 211235Z 18010KT 02/M02 A2983 RMK A01 T00231024  RH  072%=      5-min Rain = 0
KCES 211240Z 18010KT 02/M02 A2983 RMK A01 T00231024  RH  072%=      5-min Rain = 0
KCES 211245Z 18010KT 02/M02 A2983 RMK A01 T00231024  RH  072%=      5-min Rain = 0
KCES 211250Z 19009KT 02/M03 A2983 RMK A01 T00211025  RH  072%=      5-min Rain = 0
KCES 211255Z 19007KT 02/M03 A2983 RMK A01 T00201025  RH  073%=      5-min Rain = 0
KCES 211300Z 19006KT 02/M03 A2983 RMK A01 T00181025  RH  074%=      5-min Rain = 0
KCES 211305Z 18006KT 02/M03 A2983 RMK A01 T00171026  RH  074%=      5-min Rain = 0
KCES 211310Z 18005KT 02/M03 A2983 RMK A01 T00161026  RH  074%=      5-min Rain = 0
KCES 211315Z 19004KT 02/M03 A2983 RMK A01 T00151026  RH  075%=      5-min Rain = 0
KCES 211320Z 19004KT 01/M03 A2983 RMK A01 T00131028  RH  075%=      5-min Rain = 0
KCES 211325Z 19006KT 01/M03 A2984 RMK A01 T00111027  RH  076%=      5-min Rain = 0
KCES 211330Z 19007KT 01/M03 A2984 RMK A01 T00111027  RH  077%=      5-min Rain = 0
KCES 211335Z 20007KT 01/M03 A2984 RMK A01 T00091028  RH  077%=      5-min Rain = 0
KCES 211340Z 20008KT 01/M03 A2984 RMK A01 T00061028  RH  078%=      5-min Rain = 0
KCES 211345Z 20007KT 01/M03 A2984 RMK A01 T00051029  RH  079%=      5-min Rain = 0
KCES 211350Z 20007KT 00/M03 A2984 RMK A01 T00031029  RH  080%=      5-min Rain = 0
KCES 211355Z 20008KT 00/03 A2983 RMK A01 T00000-30  RH  080%=      5-min Rain = 0
KCES 211400Z 19009KT 00/03 A2983 RMK A01 T00-00-30  RH  081%=      5-min Rain = 0
KCES 211405Z 19009KT 00/M03 A2982 RMK A01 T00021028  RH  081%=      5-min Rain = 0
KCES 211410Z 19009KT 00/M03 A2983 RMK A01 T00041028  RH  080%=      5-min Rain = 0
KCES 211415Z 18007KT 01/M03 A2983 RMK A01 T00071027  RH  079%=      5-min Rain = 0
KCES 211420Z 18009KT 01/M03 A2983 RMK A01 T00101026  RH  078%=      5-min Rain = 0
KCES 211425Z 18010KT 01/M03 A2982 RMK A01 T00111025  RH  077%=      5-min Rain = 0
KCES 211430Z 18012KT 02/M02 A2982 RMK A01 T00151024  RH  076%=      5-min Rain = 0
KCES 211435Z 18013KT 02/M02 A2981 RMK A01 T00191023  RH  074%=      5-min Rain = 0
KCES 211440Z 18014KT 02/M02 A2981 RMK A01 T00221022  RH  074%=      5-min Rain = 0
KCES 211445Z 18014KT 03/M02 A298 RMK A01 T00261022  RH  072%=      5-min Rain = 0
KCES 211450Z 18014KT 03/M02 A298 RMK A01 T00291022  RH  070%=      5-min Rain = 0
KCES 211455Z 18013KT 03/M02 A298 RMK A01 T00311022  RH  069%=      5-min Rain = 0
KCES 211500Z 18011KT 03/M02 A298 RMK A01 T00301022  RH  069%=      5-min Rain = 0
KCES 211505Z 18010KT 03/M02 A298 RMK A01 T00301021  RH  069%=      5-min Rain = 0
KCES 211510Z 19010KT 03/M02 A2981 RMK A01 T00311021  RH  069%=      5-min Rain = 0
KCES 211515Z 20009KT 03/M02 A2982 RMK A01 T00321021  RH  069%=      5-min Rain = 0
KCES 211520Z 19011KT 03/M02 A2981 RMK A01 T00331020  RH  068%=      5-min Rain = 0
KCES 211525Z 19011KT 03/M02 A2981 RMK A01 T00331020  RH  069%=      5-min Rain = 0
KCES 211530Z 19011KT 03/M02 A2981 RMK A01 T00341019  RH  069%=      5-min Rain = 0
KCES 211535Z 19011KT 04/M02 A298 RMK A01 T00381018  RH  067%=      5-min Rain = 0
KCES 211540Z 18011KT 04/M02 A2981 RMK A01 T00421018  RH  065%=      5-min Rain = 0
KCES 211545Z 18013KT 04/M02 A298 RMK A01 T00431019  RH  064%=      5-min Rain = 0
KCES 211550Z 18012KT 04/M02 A298 RMK A01 T00441019  RH  064%=      5-min Rain = 0
KCES 211555Z 18010KT 05/M02 A298 RMK A01 T00461019  RH  063%=      5-min Rain = 0
KCES 211600Z 17008KT 05/M02 A298 RMK A01 T00481018  RH  063%=      5-min Rain = 0
KCES 211605Z 17008KT 05/M02 A2979 RMK A01 T00511018  RH  062%=      5-min Rain = 0
KCES 211610Z 17009KT 05/M02 A2979 RMK A01 T00541017  RH  061%=      5-min Rain = 0
KCES 211615Z 17008KT 06/M02 A2979 RMK A01 T00581016  RH  059%=      5-min Rain = 0
KCES 211620Z 17008KT 06/M02 A2979 RMK A01 T00631017  RH  057%=      5-min Rain = 0
KCES 211625Z 18008KT 07/M02 A2979 RMK A01 T00681018  RH  055%=      5-min Rain = 0
KCES 211630Z 18009KT 07/M02 A2979 RMK A01 T00721019  RH  053%=      5-min Rain = 0
KCES 211635Z 18010KT 08/M02 A2979 RMK A01 T00771019  RH  051%=      5-min Rain = 0
KCES 211640Z 18011KT 08/M02 A2979 RMK A01 T00791022  RH  049%=      5-min Rain = 0
KCES 211645Z 18010KT 08/M02 A2978 RMK A01 T00821018  RH  050%=      5-min Rain = 0
KCES 211650Z 17011KT 08/M02 A2978 RMK A01 T00831018  RH  049%=      5-min Rain = 0
KCES 211655Z 18011KT 09/M02 A2978 RMK A01 T00851019  RH  048%=      5-min Rain = 0
KCES 211700Z 17011KT 09/M02 A2978 RMK A01 T00921018  RH  046%=      5-min Rain = 0
KCES 211705Z 18009KT 09/M02 A2978 RMK A01 T00911019  RH  046%=      5-min Rain = 0
KCES 211710Z 17009KT 09/M02 A2979 RMK A01 T00911019  RH  047%=      5-min Rain = 0
KCES 211715Z 18008KT 09/M02 A2979 RMK A01 T00911017  RH  047%=      5-min Rain = 0
KCES 211720Z 18008KT 09/M02 A2979 RMK A01 T00941017  RH  046%=      5-min Rain = 0
KCES 211725Z 17008KT 10/M02 A2979 RMK A01 T00971019  RH  045%=      5-min Rain = 0
KCES 211730Z 18007KT 10/M02 A2979 RMK A01 T01001018  RH  044%=      5-min Rain = 0
KCES 211735Z 18008KT 10/M02 A2979 RMK A01 T01021020  RH  043%=      5-min Rain = 0
KCES 211740Z 17008KT 10/M02 A2979 RMK A01 T01041019  RH  043%=      5-min Rain = 0
KCES 211745Z 17010KT 10/M02 A2978 RMK A01 T01031024  RH  041%=      5-min Rain = 0
KCES 211750Z 18010KT 11/M02 A2978 RMK A01 T01081023  RH  040%=      5-min Rain = 0
KCES 211755Z 18009KT 11/M02 A2978 RMK A01 T01101024  RH  039%=      5-min Rain = 0
KCES 211800Z 18010KT 11/M03 A2978 RMK A01 T01091026  RH  039%=      5-min Rain = 0
KCES 211805Z 18009KT 12/M02 A2977 RMK A01 T01151022  RH  039%=      5-min Rain = 0
KCES 211810Z 17010KT 12/M02 A2977 RMK A01 T01201024  RH  037%=      5-min Rain = 0
KCES 211815Z 18010KT 12/M03 A2977 RMK A01 T01191025  RH  037%=      5-min Rain = 0
KCES 211820Z 17010KT 12/M03 A2977 RMK A01 T01201026  RH  036%=      5-min Rain = 0
KCES 211825Z 17010KT 12/M02 A2976 RMK A01 T01241024  RH  036%=      5-min Rain = 0
KCES 211830Z 17011KT 13/M02 A2976 RMK A01 T01261022  RH  036%=      5-min Rain = 0
KCES 211835Z 17012KT 13/M02 A2975 RMK A01 T01291020  RH  036%=      5-min Rain = 0
KCES 211840Z 18012KT 13/M02 A2974 RMK A01 T01341024  RH  034%=      5-min Rain = 0
KCES 211845Z 19012KT 14/M02 A2974 RMK A01 T01411023  RH  032%=      5-min Rain = 0
KCES 211850Z 19013G18KT 15/M02 A2974 RMK A01 T01461023  RH  031%=      5-min Rain = 0
KCES 211855Z 20014KT 15/M03 A2973 RMK A01 T01491025  RH  030%=      5-min Rain = 0
KCES 211900Z 20014KT 15/M03 A2973 RMK A01 T01531026  RH  029%=      5-min Rain = 0
KCES 211905Z 20014KT 16/M03 A2972 RMK A01 T01551026  RH  029%=      5-min Rain = 0
KCES 211910Z 20013G18KT 16/M03 A2972 RMK A01 T01581025  RH  029%=      5-min Rain = 0
KCES 211915Z 20014G19KT 16/M03 A2972 RMK A01 T01591025  RH  028%=      5-min Rain = 0
KCES 211920Z 19014KT 16/M02 A2971 RMK A01 T01591024  RH  029%=      5-min Rain = 0
KCES 211925Z 18015KT 16/M02 A2971 RMK A01 T01631021  RH  028%=      5-min Rain = 0
KCES 211930Z 18015KT 17/M02 A297 RMK A01 T01681022  RH  027%=      5-min Rain = 0
KCES 211935Z 18016KT 17/M02 A2969 RMK A01 T01711022  RH  027%=      5-min Rain = 0
KCES 211940Z 18015KT 18/M02 A2969 RMK A01 T01761021  RH  026%=      5-min Rain = 0
KCES 211945Z 18017KT 18/M02 A2969 RMK A01 T01761020  RH  026%=      5-min Rain = 0
KCES 211950Z 18017G22KT 18/M02 A2968 RMK A01 T01761022  RH  026%=      5-min Rain = 0
KCES 211955Z 19016G22KT 18/M02 A2967 RMK A01 T01801019  RH  026%=      5-min Rain = 0
KCES 212000Z 19016G21KT 18/M02 A2967 RMK A01 T01821020  RH  025%=      5-min Rain = 0
KCES 212005Z 18016G21KT 18/M02 A2967 RMK A01 T01831019  RH  026%=      5-min Rain = 0
KCES 212010Z 18017KT 19/M02 A2966 RMK A01 T01861019  RH  025%=      5-min Rain = 0
KCES 212015Z 18017G22KT 19/M02 A2966 RMK A01 T01881019  RH  025%=      5-min Rain = 0
KCES 212020Z 18017G22KT 20/M02 A2965 RMK A01 T01951018  RH  024%=      5-min Rain = 0
KCES 212025Z 18016G21KT 20/M02 A2965 RMK A01 T01981018  RH  023%=      5-min Rain = 0
KCES 212030Z 19016G21KT 20/M02 A2965 RMK A01 T02031020  RH  022%=      5-min Rain = 0
KCES 212035Z 18016KT 21/M02 A2964 RMK A01 T02051020  RH  022%=      5-min Rain = 0
KCES 212040Z 18015KT 21/M02 A2964 RMK A01 T02091021  RH  021%=      5-min Rain = 0
KCES 212045Z 20014G20KT 22/M02 A2963 RMK A01 T02161024  RH  020%=      5-min Rain = 0
KCES 212050Z 19019G24KT 22/M03 A2962 RMK A01 T02201032  RH  018%=      5-min Rain = 0
KCES 212055Z 19020KT 22/M03 A2962 RMK A01 T02241030  RH  018%=      5-min Rain = 0
KCES 212100Z 19020G25KT 23/M03 A2962 RMK A01 T02261033  RH  018%=      5-min Rain = 0
KCES 212105Z 18017KT 23/M03 A2962 RMK A01 T02271031  RH  018%=      5-min Rain = 0
KCES 212110Z 18016G21KT 23/M03 A2962 RMK A01 T02251031  RH  018%=      5-min Rain = 0
KCES 212115Z 18016G21KT 23/M03 A2962 RMK A01 T02251029  RH  018%=      5-min Rain = 0
KCES 212120Z 18017G23KT 22/M03 A2962 RMK A01 T02241029  RH  018%=      5-min Rain = 0
KCES 212125Z 18018G25KT 22/M03 A2962 RMK A01 T02211027  RH  019%=      5-min Rain = 0
KCES 212130Z 18019G24KT 22/M03 A2961 RMK A01 T02231025  RH  019%=      5-min Rain = 0
KCES 212135Z 19019G24KT 22/M03 A2961 RMK A01 T02241025  RH  019%=      5-min Rain = 0
KCES 212140Z 19021KT 22/M03 A2961 RMK A01 T02231025  RH  019%=      5-min Rain = 0
KCES 212145Z 19019G24KT 22/M02 A2961 RMK A01 T02211024  RH  019%=      5-min Rain = 0
KCES 212150Z 19021KT 22/M03 A2961 RMK A01 T02221025  RH  019%=      5-min Rain = 0
KCES 212155Z 18020KT 22/M03 A2961 RMK A01 T02211026  RH  019%=      5-min Rain = 0
KCES 212200Z 18019G24KT 22/M03 A2961 RMK A01 T02191027  RH  019%=      5-min Rain = 0
KCES 212205Z 18018G23KT 22/M03 A296 RMK A01 T02191028  RH  019%=      5-min Rain = 0
KCES 212210Z 18017KT 22/M03 A2961 RMK A01 T02191028  RH  019%=      5-min Rain = 0
KCES 212215Z 18017G22KT 22/M03 A296 RMK A01 T02201028  RH  019%=      5-min Rain = 0
KCES 212220Z 18018G24KT 22/M03 A296 RMK A01 T02231029  RH  018%=      5-min Rain = 0
KCES 212225Z 18016G21KT 23/M03 A296 RMK A01 T02261028  RH  018%=      5-min Rain = 0
KCES 212230Z 18016KT 22/M03 A296 RMK A01 T02241028  RH  018%=      5-min Rain = 0
KCES 212235Z 18013KT 22/M03 A296 RMK A01 T02221028  RH  019%=      5-min Rain = 0
KCES 212240Z 18013KT 22/M03 A2961 RMK A01 T02241028  RH  019%=      5-min Rain = 0
KCES 212245Z 17017G23KT 22/M03 A2961 RMK A01 T02191027  RH  019%=      5-min Rain = 0
KCES 212250Z 17018KT 22/M02 A2961 RMK A01 T02161023  RH  020%=      5-min Rain = 0
KCES 212255Z 16017KT 21/M02 A2961 RMK A01 T02111021  RH  021%=      5-min Rain = 0
KCES 212300Z 17019G24KT 21/M02 A2961 RMK A01 T02071022  RH  021%=      5-min Rain = 0
KCES 212305Z 16018G24KT 20/M02 A2961 RMK A01 T02021023  RH  022%=      5-min Rain = 0
KCES 212310Z 16016KT 20/M02 A296 RMK A01 T01981021  RH  023%=      5-min Rain = 0
KCES 212315Z 17018KT 20/M02 A296 RMK A01 T01951021  RH  023%=      5-min Rain = 0
KCES 212320Z 17017G22KT 19/M02 A296 RMK A01 T01911020  RH  024%=      5-min Rain = 0
KCES 212325Z 17017G22KT 19/M02 A296 RMK A01 T01871019  RH  025%=      5-min Rain = 0
KCES 212330Z 17017KT 18/M02 A296 RMK A01 T01841019  RH  025%=      5-min Rain = 0
KCES 212335Z 17016KT 18/M02 A296 RMK A01 T01801019  RH  026%=      5-min Rain = 0
KCES 212340Z 17015KT 18/M02 A296 RMK A01 T01761019  RH  027%=      5-min Rain = 0
KCES 212345Z 17014KT 17/M02 A296 RMK A01 T01721019  RH  027%=      5-min Rain = 0
KCES 212350Z 17015KT 17/M02 A296 RMK A01 T01701018  RH  028%=      5-min Rain = 0
KCES 212355Z 17016KT 17/M02 A296 RMK A01 T01681018  RH  028%=      5-min Rain = 0
KCES 220000Z 17016KT 17/M02 A296 RMK A01 T01661019  RH  028%=      5-min Rain = 0
KCES 220005Z 17015KT 17/M02 A296 RMK A01 T01661019  RH  029%=      5-min Rain = 0
KCES 220010Z 17015KT 16/M02 A296 RMK A01 T01641018  RH  029%=      5-min Rain = 0
KCES 220015Z 17016G21KT 17/M02 A296 RMK A01 T01651018  RH  029%=      5-min Rain = 0
KCES 220020Z 17018KT 17/M02 A296 RMK A01 T01691017  RH  028%=      5-min Rain = 0
KCES 220025Z 17016KT 17/M02 A296 RMK A01 T01691017  RH  028%=      5-min Rain = 0
KCES 220030Z 17017KT 17/M02 A296 RMK A01 T01681017  RH  029%=      5-min Rain = 0
KCES 220035Z 17018G23KT 17/M02 A296 RMK A01 T01671017  RH  029%=      5-min Rain = 0
KCES 220040Z 17018KT 17/M02 A296 RMK A01 T01661017  RH  029%=      5-min Rain = 0
KCES 220045Z 17018KT 17/M02 A296 RMK A01 T01661017  RH  029%=      5-min Rain = 0
KCES 220050Z 17016KT 17/M02 A296 RMK A01 T01661018  RH  029%=      5-min Rain = 0
KCES 220055Z 17017G24KT 17/M02 A296 RMK A01 T01651018  RH  029%=      5-min Rain = 0
KCES 220100Z 17016KT 16/M02 A296 RMK A01 T01641018  RH  029%=      5-min Rain = 0
KCES 220105Z 17019G26KT 16/M02 A296 RMK A01 T01641018  RH  029%=      5-min Rain = 0
KCES 220110Z 17019KT 17/M02 A2959 RMK A01 T01651019  RH  029%=      5-min Rain = 0
KCES 220115Z 16019G24KT 16/M02 A2959 RMK A01 T01641019  RH  029%=      5-min Rain = 0
KCES 220120Z 16020G26KT 17/M02 A2959 RMK A01 T01651019  RH  029%=      5-min Rain = 0
KCES 220125Z 16021G27KT 17/M02 A2959 RMK A01 T01661019  RH  028%=      5-min Rain = 0
KCES 220130Z 16018G23KT 17/M02 A2959 RMK A01 T01651020  RH  028%=      5-min Rain = 0
KCES 220135Z 16019G24KT 16/M02 A2959 RMK A01 T01641020  RH  029%=      5-min Rain = 0
KCES 220140Z 16017G22KT 16/M02 A2959 RMK A01 T01631020  RH  029%=      5-min Rain = 0
KCES 220145Z 16017G23KT 16/M02 A2959 RMK A01 T01611019  RH  029%=      5-min Rain = 0
KCES 220150Z 16017G23KT 16/M02 A2959 RMK A01 T01601018  RH  030%=      5-min Rain = 0
KCES 220155Z 16018KT 16/M02 A2959 RMK A01 T01591017  RH  030%=      5-min Rain = 0
KCES 220200Z 16018KT 16/M02 A2959 RMK A01 T01591017  RH  030%=      5-min Rain = 0
KCES 220205Z 16018G23KT 16/M02 A2958 RMK A01 T01571016  RH  031%=      5-min Rain = 0
KCES 220210Z 16019G24KT 16/M02 A2958 RMK A01 T01551015  RH  031%=      5-min Rain = 0
KCES 220215Z 16019KT 15/M01 A2958 RMK A01 T01531013  RH  032%=      5-min Rain = 0
KCES 220220Z 16019KT 15/M01 A2958 RMK A01 T01521012  RH  033%=      5-min Rain = 0
KCES 220225Z 16019KT 15/M01 A2958 RMK A01 T01511011  RH  033%=      5-min Rain = 0
KCES 220230Z 16018G23KT 15/M01 A2958 RMK A01 T01501010  RH  034%=      5-min Rain = 0
KCES 220235Z 16017G22KT 15/M01 A2959 RMK A01 T01501009  RH  034%=      5-min Rain = 0
KCES 220240Z 17017G22KT 15/M01 A2959 RMK A01 T01491008  RH  034%=      5-min Rain = 0
KCES 220245Z 17017G23KT 15/M01 A2959 RMK A01 T01481007  RH  035%=      5-min Rain = 0
KCES 220250Z 17018KT 15/M01 A2959 RMK A01 T01481007  RH  035%=      5-min Rain = 0
KCES 220255Z 17017G22KT 15/M01 A2958 RMK A01 T01461007  RH  035%=      5-min Rain = 0
KCES 220300Z 17018G23KT 15/M01 A2958 RMK A01 T01451006  RH  036%=      5-min Rain = 0
KCES 220305Z 17017KT 14/M01 A2958 RMK A01 T01441006  RH  036%=      5-min Rain = 0
KCES 220310Z 17019KT 14/M01 A2958 RMK A01 T01441005  RH  036%=      5-min Rain = 0
KCES 220315Z 17018KT 14/M00 A2958 RMK A01 T01431004  RH  037%=      5-min Rain = 0
KCES 220320Z 17017G23KT 14/M00 A2958 RMK A01 T01421004  RH  037%=      5-min Rain = 0
KCES 220325Z 17016KT 14/M00 A2958 RMK A01 T01401003  RH  038%=      5-min Rain = 0
KCES 220330Z 17016G21KT 14/M00 A2958 RMK A01 T01391003  RH  038%=      5-min Rain = 0
KCES 220335Z 17016G22KT 14/M00 A2958 RMK A01 T01381003  RH  039%=      5-min Rain = 0
KCES 220340Z 17017G22KT 14/M00 A2958 RMK A01 T01391002  RH  038%=      5-min Rain = 0
KCES 220345Z 17017KT 14/M00 A2958 RMK A01 T01391002  RH  038%=      5-min Rain = 0
KCES 220350Z 17018G23KT 14/M00 A2959 RMK A01 T01401002  RH  038%=      5-min Rain = 0
KCES 220355Z 17018G23KT 14/M00 A2958 RMK A01 T01391002  RH  038%=      5-min Rain = 0
KCES 220400Z 17016G22KT 14/M00 A2958 RMK A01 T01381002  RH  039%=      5-min Rain = 0
KCES 220405Z 17015KT 14/M00 A2958 RMK A01 T01351002  RH  039%=      5-min Rain = 0
KCES 220410Z 17015KT 13/M00 A2959 RMK A01 T01331001  RH  040%=      5-min Rain = 0
KCES 220415Z 17015KT 13/M00 A2959 RMK A01 T01321001  RH  040%=      5-min Rain = 0
KCES 220420Z 17015G20KT 13/M00 A2958 RMK A01 T01331001  RH  040%=      5-min Rain = 0
KCES 220425Z 17016KT 13/M00 A2958 RMK A01 T01331001  RH  040%=      5-min Rain = 0
KCES 220430Z 17016KT 13/M00 A2958 RMK A01 T01331001  RH  040%=      5-min Rain = 0
KCES 220435Z 18015KT 13/M00 A2958 RMK A01 T01331001  RH  040%=      5-min Rain = 0
KCES 220440Z 18016G21KT 13/M00 A2958 RMK A01 T01341001  RH  040%=      5-min Rain = 0
KCES 220445Z 18016G21KT 13/M00 A2958 RMK A01 T01331001  RH  040%=      5-min Rain = 0
KCES 220450Z 18017G22KT 13/M00 A2958 RMK A01 T01331001  RH  040%=      5-min Rain = 0
KCES 220455Z 18017G22KT 13/M00 A2959 RMK A01 T01331001  RH  040%=      5-min Rain = 0
KCES 220500Z 18016KT 13/M00 A2959 RMK A01 T01321001  RH  041%=      5-min Rain = 0
KCES 220505Z 18015G20KT 13/M00 A2959 RMK A01 T01301001  RH  041%=      5-min Rain = 0
KCES 220510Z 18016KT 13/M00 A2959 RMK A01 T01301001  RH  041%=      5-min Rain = 0
KCES 220515Z 18016G21KT 13/00 A2959 RMK A01 T012900-0  RH  041%=      5-min Rain = 0
KCES 220520Z 18015G20KT 13/00 A2959 RMK A01 T01290000  RH  042%=      5-min Rain = 0
KCES 220525Z 18015KT 13/00 A296 RMK A01 T012900-0  RH  042%=      5-min Rain = 0
KCES 220530Z 18014G19KT 13/00 A296 RMK A01 T01280000  RH  042%=      5-min Rain = 0
KCES 220535Z 18014KT 13/00 A296 RMK A01 T01260000  RH  043%=      5-min Rain = 0
KCES 220540Z 18014KT 12/00 A296 RMK A01 T01240000  RH  043%=      5-min Rain = 0
KCES 220545Z 18015KT 12/00 A296 RMK A01 T01240000  RH  043%=      5-min Rain = 0
KCES 220550Z 18014KT 12/00 A296 RMK A01 T01230001  RH  044%=      5-min Rain = 0
KCES 220555Z 18014KT 12/00 A296 RMK A01 T01220001  RH  044%=      5-min Rain = 0

Page generated in 0.0093 seconds.